Time;durP1;ratioP1;P1;durP2;ratioP2;P2;SDS_P1;SDS_P2;PMS_P1;PMS_P2;Temp;Humidity;BMP_temperature;BMP_pressure;BME280_temperature;BME280_humidity;BME280_pressure;Samples;Min_cycle;Max_cycle;Signal;HPM_P1;HPM_P2
2022/08/12 00:44:43;;;;;;;4.67;4.57;;;;;;;19.01;52.87;66198.69;5133523;27;20200;-69
2022/08/12 00:47:11;;;;;;;4.60;4.50;;;;;;;18.94;53.08;66194.63;5132780;27;20204;-69
2022/08/12 00:49:54;;;;;;;4.43;4.43;;;;;;;18.95;53.11;66192.56;5133673;27;20219;-69
2022/08/12 00:52:21;;;;;;;5.00;4.87;;;;;;;18.82;53.66;66178.59;5132489;27;20184;-70
2022/08/12 00:54:57;;;;;;;5.00;4.80;;;;;;;18.80;53.63;66181.63;5132152;27;20184;-70
2022/08/12 00:57:27;;;;;;;4.83;4.73;;;;;;;18.81;53.78;66174.28;5132908;27;20189;-69
2022/08/12 00:59:54;;;;;;;5.30;5.20;;;;;;;18.77;53.77;66167.19;5133994;27;20600;-69
2022/08/12 01:02:23;;;;;;;5.10;4.90;;;;;;;18.74;53.91;66167.03;5132474;27;20188;-69
2022/08/12 01:13:19;;;;;;;4.93;4.83;;;;;;;18.60;54.63;66154.56;5134782;27;20173;-69
2022/08/12 01:15:50;;;;;;;5.30;5.20;;;;;;;18.57;54.56;66153.84;5131831;27;20225;-69
2022/08/12 01:18:20;;;;;;;5.30;4.97;;;;;;;18.53;54.86;66140.94;5132253;27;20188;-69
2022/08/12 01:21:08;;;;;;;4.37;4.37;;;;;;;18.51;55.09;66138.72;5132479;27;20197;-69
2022/08/12 01:23:59;;;;;;;4.30;4.30;;;;;;;18.45;55.08;66132.56;5133577;27;20217;-69
2022/08/12 01:26:46;;;;;;;5.17;4.83;;;;;;;18.42;55.38;66134.47;5121110;27;20235;-69
2022/08/12 01:29:21;;;;;;;4.87;4.67;;;;;;;18.34;55.49;66138.69;5132088;27;20234;-69
2022/08/12 01:31:50;;;;;;;5.80;5.40;;;;;;;18.30;55.88;66118.47;5134589;28;20504;-68
2022/08/12 01:34:22;;;;;;;5.53;4.93;;;;;;;18.29;55.77;66119.94;5133309;28;20192;-69
2022/08/12 01:37:05;;;;;;;5.20;5.10;;;;;;;18.23;56.21;66121.72;5133022;28;20204;-69
2022/08/12 01:39:46;;;;;;;4.80;4.80;;;;;;;18.24;55.90;66119.66;5129439;28;20197;-69
2022/08/12 01:42:43;;;;;;;5.50;5.23;;;;;;;18.19;56.45;66109.34;5132727;28;20623;-69
2022/08/12 01:45:11;;;;;;;4.87;4.87;;;;;;;18.13;56.66;66103.22;5118096;28;20237;-69
2022/08/12 01:47:48;;;;;;;7.27;5.00;;;;;;;18.09;56.84;66096.13;5132021;28;20220;-69
2022/08/12 01:50:48;;;;;;;5.07;5.03;;;;;;;18.08;56.94;66104.97;5135529;27;20191;-69
2022/08/12 01:53:17;;;;;;;5.20;5.10;;;;;;;18.01;57.49;66094.53;5123309;27;20249;-69
2022/08/12 01:55:47;;;;;;;5.10;5.00;;;;;;;17.97;57.63;66087.44;5136183;27;20233;-69
2022/08/12 01:58:23;;;;;;;4.67;4.50;;;;;;;17.92;58.00;66077.16;5136840;27;20192;-69
2022/08/12 02:00:59;;;;;;;5.03;5.03;;;;;;;17.91;57.99;66075.50;5137001;27;20194;-69
2022/08/12 02:13:00;;;;;;;4.13;4.13;;;;;;;17.69;58.94;66059.38;5138427;27;20192;-69
2022/08/12 02:15:50;;;;;;;4.60;4.50;;;;;;;17.68;59.23;66048.31;5136707;27;20272;-69
2022/08/12 02:18:47;;;;;;;4.90;4.90;;;;;;;17.64;59.43;66053.78;5137003;27;20192;-69
2022/08/12 02:21:36;;;;;;;6.17;5.50;;;;;;;17.57;60.01;66039.22;5117135;28;20189;-69
2022/08/12 02:24:06;;;;;;;4.67;4.67;;;;;;;17.57;59.84;66043.91;5129545;27;20245;-69
2022/08/12 02:26:36;;;;;;;4.23;4.23;;;;;;;17.51;60.04;66039.84;5134438;27;20217;-69
2022/08/12 02:29:03;;;;;;;5.20;5.10;;;;;;;17.48;60.24;66026.56;5135366;27;20592;-69
2022/08/12 02:31:30;;;;;;;5.70;5.60;;;;;;;17.40;60.48;66030.19;5136601;27;20234;-69
2022/08/12 02:33:57;;;;;;;5.37;5.07;;;;;;;17.35;60.59;66017.31;5136229;27;20230;-69
2022/08/12 02:36:24;;;;;;;5.47;5.37;;;;;;;17.34;60.67;66024.63;5136426;27;20705;-69
2022/08/12 02:38:52;;;;;;;5.23;5.13;;;;;;;17.36;60.71;66020.47;5135545;27;20189;-69
2022/08/12 02:41:24;;;;;;;6.00;5.70;;;;;;;17.32;60.79;66011.91;5136160;27;20681;-69
2022/08/12 02:43:53;;;;;;;5.30;5.20;;;;;;;17.30;60.95;66009.66;5136482;27;20238;-69
2022/08/12 02:46:26;;;;;;;5.50;5.40;;;;;;;17.30;61.27;66007.03;5136963;27;20272;-69
2022/08/12 02:49:14;;;;;;;5.33;5.33;;;;;;;17.22;61.74;66006.00;5135133;27;20189;-69
2022/08/12 02:51:43;;;;;;;6.13;5.90;;;;;;;17.16;62.23;65996.13;5137154;27;20176;-69
2022/08/12 02:54:10;;;;;;;6.10;5.70;;;;;;;17.07;62.46;65984.00;5136280;27;20217;-69
2022/08/12 02:56:39;;;;;;;6.20;6.10;;;;;;;16.98;63.14;65979.78;5134950;27;20204;-69
2022/08/12 02:59:13;;;;;;;5.33;5.33;;;;;;;16.94;63.26;65972.16;5135486;27;20208;-68
2022/08/12 03:01:47;;;;;;;5.80;5.70;;;;;;;16.89;63.55;65963.97;5134909;27;20260;-69
2022/08/12 03:04:25;;;;;;;5.07;5.03;;;;;;;16.88;63.60;65966.03;5135647;27;20196;-69
2022/08/12 03:07:23;;;;;;;5.97;5.77;;;;;;;16.85;63.78;65965.28;5135216;27;20631;-69
2022/08/12 03:10:11;;;;;;;5.60;5.50;;;;;;;16.81;63.82;65955.59;5130488;27;20725;-69
2022/08/12 03:12:45;;;;;;;5.37;5.27;;;;;;;16.82;63.92;65964.03;5135979;27;20188;-69
2022/08/12 03:15:19;;;;;;;6.37;5.63;;;;;;;16.78;64.17;65950.19;5134964;27;20220;-69
2022/08/12 03:18:06;;;;;;;5.83;5.73;;;;;;;16.73;64.31;65955.09;5134622;27;20271;-69
2022/08/12 03:20:53;;;;;;;5.63;5.53;;;;;;;16.68;64.62;65951.56;5134727;27;20280;-69
2022/08/12 03:23:21;;;;;;;6.73;5.50;;;;;;;16.64;65.02;65942.41;5135641;27;20639;-68
2022/08/12 03:26:00;;;;;;;6.03;6.00;;;;;;;16.59;65.17;65931.63;5135298;27;20212;-69
2022/08/12 03:31:33;;;;;;;6.13;6.03;;;;;;;16.55;65.49;65929.78;5135600;27;20707;-69
2022/08/12 03:34:08;;;;;;;5.87;5.77;;;;;;;16.52;65.73;65927.00;5135323;27;20596;-69
2022/08/12 03:36:37;;;;;;;6.87;6.30;;;;;;;16.42;66.40;65920.53;5135350;27;20204;-68
2022/08/12 03:39:39;;;;;;;6.33;6.23;;;;;;;16.40;66.43;65911.00;5133296;27;20213;-69
2022/08/12 03:42:20;;;;;;;5.73;5.63;;;;;;;16.40;66.54;65915.69;5135143;27;20218;-69
2022/08/12 04:01:56;;;;;;;5.53;5.43;;;;;;;16.16;68.48;65884.81;5134518;27;20241;-69
2022/08/12 04:04:35;;;;;;;6.43;6.03;;;;;;;16.10;68.79;65880.75;5134926;27;20199;-69
2022/08/12 04:07:08;;;;;;;6.17;6.07;;;;;;;15.96;69.58;65870.41;5133143;27;20208;-69
2022/08/12 04:09:38;;;;;;;7.27;5.43;;;;;;;15.87;70.00;65857.75;5132827;27;20192;-69
2022/08/12 04:14:53;;;;;;;6.03;5.90;;;;;;;15.75;70.54;65852.81;5119717;27;20184;-69
2022/08/12 04:17:19;;;;;;;6.30;6.20;;;;;;;15.76;70.85;65846.06;5134585;27;20181;-69
2022/08/12 04:19:47;;;;;;;6.07;5.97;;;;;;;15.72;71.32;65835.81;5134422;27;20225;-69
2022/08/12 04:22:15;;;;;;;7.97;6.07;;;;;;;15.67;71.64;65836.03;5135346;27;20232;-69
2022/08/12 04:24:43;;;;;;;6.93;6.73;;;;;;;15.63;71.84;65834.75;5134263;27;20192;-69
2022/08/12 04:27:15;;;;;;;6.50;6.10;;;;;;;15.65;72.54;65833.81;5130849;27;20192;-71
2022/08/12 04:29:43;;;;;;;5.87;5.80;;;;;;;15.67;72.30;65831.38;5132632;27;20198;-69
2022/08/12 04:32:30;;;;;;;7.47;6.70;;;;;;;15.67;72.83;65828.75;5134027;27;20202;-69
2022/08/12 04:34:57;;;;;;;7.17;6.57;;;;;;;15.68;73.08;65829.84;5134371;27;20237;-69
2022/08/12 04:37:24;;;;;;;7.23;6.80;;;;;;;15.69;72.48;65838.25;5132691;27;20209;-69
2022/08/12 04:39:52;;;;;;;6.63;6.33;;;;;;;15.63;72.82;65832.13;5133008;27;20233;-69
2022/08/12 04:42:20;;;;;;;6.10;5.90;;;;;;;15.56;73.32;65824.31;5132882;27;20199;-69
2022/08/12 04:44:47;;;;;;;6.83;6.57;;;;;;;15.50;73.72;65819.69;5131282;27;20218;-69
2022/08/12 04:47:15;;;;;;;6.73;6.40;;;;;;;15.43;74.23;65815.09;5133902;27;20650;-68
2022/08/12 04:49:43;;;;;;;7.97;6.70;;;;;;;15.37;75.33;65805.81;5132549;27;20189;-68
2022/08/12 04:52:10;;;;;;;7.33;7.23;;;;;;;15.35;74.95;65803.56;5115474;27;20196;-69
2022/08/12 04:54:37;;;;;;;7.67;7.10;;;;;;;15.37;75.07;65805.81;5132866;27;20196;-68
2022/08/12 04:57:04;;;;;;;6.60;6.50;;;;;;;15.42;74.79;65811.34;5134596;27;20204;-69
2022/08/12 04:59:32;;;;;;;7.80;7.50;;;;;;;15.49;74.94;65810.75;5133545;27;20215;-69
2022/08/12 05:02:16;;;;;;;8.57;7.63;;;;;;;15.61;74.18;65829.34;5127144;27;20245;-69
2022/08/12 05:04:50;;;;;;;8.13;7.60;;;;;;;15.70;73.97;65834.16;5132765;27;20296;-69
2022/08/12 05:07:16;;;;;;;9.10;8.33;;;;;;;15.82;73.69;65847.50;5134527;27;20585;-69
2022/08/12 05:09:43;;;;;;;9.70;6.80;;;;;;;15.90;73.24;65866.34;5132426;27;20761;-69
2022/08/12 05:12:38;;;;;;;7.53;7.20;;;;;;;15.99;73.88;65868.50;5134919;27;20259;-69
2022/08/12 05:15:06;;;;;;;16.87;7.20;;;;;;;16.06;73.83;65870.50;5133376;27;20195;-69
2022/08/12 05:17:54;;;;;;;7.93;7.30;;;;;;;16.06;74.03;65878.34;5132379;27;20279;-69
2022/08/12 05:20:21;;;;;;;8.83;8.10;;;;;;;16.10;74.25;65878.13;5133063;27;20188;-69
2022/08/12 05:22:49;;;;;;;6.93;6.83;;;;;;;16.20;73.50;65893.94;5133021;27;20196;-69
2022/08/12 05:25:22;;;;;;;7.43;6.80;;;;;;;16.30;73.32;65897.25;5133004;27;20253;-69
2022/08/12 05:27:48;;;;;;;8.77;8.20;;;;;;;16.36;73.39;65905.97;5132183;27;20245;-69
2022/08/12 05:30:26;;;;;;;6.97;6.60;;;;;;;16.48;72.36;65919.91;5132558;28;20188;-69
2022/08/12 05:32:54;;;;;;;11.97;7.23;;;;;;;16.59;72.54;65933.69;5131913;28;20195;-69
2022/08/12 05:35:25;;;;;;;7.73;7.20;;;;;;;16.62;72.64;65945.44;5133550;28;20587;-69
2022/08/12 05:40:40;;;;;;;7.13;7.03;;;;;;;16.83;72.52;65954.66;5092051;28;20212;-69
2022/08/12 05:43:06;;;;;;;7.27;6.77;;;;;;;16.92;71.69;65983.03;5133002;28;20188;-69
2022/08/12 05:45:33;;;;;;;9.57;8.10;;;;;;;16.98;71.62;65979.22;5133065;28;20212;-69
2022/08/12 05:48:01;;;;;;;6.87;6.67;;;;;;;17.07;71.53;65984.00;5133174;28;20224;-69
2022/08/12 05:50:28;;;;;;;8.10;7.43;;;;;;;17.16;71.83;65991.44;5131848;28;20200;-69
2022/08/12 05:52:54;;;;;;;8.67;8.37;;;;;;;17.29;71.46;66011.19;5131791;28;20180;-69
2022/08/12 05:55:21;;;;;;;9.43;8.67;;;;;;;17.47;69.99;66028.06;5133223;28;20201;-68
2022/08/12 05:57:55;;;;;;;8.53;8.23;;;;;;;17.49;69.63;66034.97;5134294;28;20202;-68
2022/08/12 06:00:24;;;;;;;8.03;7.83;;;;;;;17.58;69.12;66050.28;5133115;28;20241;-69
2022/08/12 06:02:59;;;;;;;7.77;7.33;;;;;;;;;;5130610;28;20284;-69
2022/08/12 06:05:35;;;;;;;9.83;9.10;;;;;;;17.76;68.80;66061.94;5132944;28;20219;-68
2022/08/12 06:08:22;;;;;;;9.17;8.80;;;;;;;17.92;67.85;66074.53;5123847;28;20200;-68
2022/08/12 06:10:49;;;;;;;8.90;8.20;;;;;;;17.98;67.43;66083.31;5114466;28;20199;-68
2022/08/12 06:13:16;;;;;;;9.30;8.90;;;;;;;;;;5129599;28;20191;-69
2022/08/12 06:15:54;;;;;;;8.00;7.80;;;;;;;18.23;67.12;66113.28;5131132;27;20226;-69
2022/08/12 06:18:21;;;;;;;9.10;8.20;;;;;;;18.31;66.75;66119.56;5130389;28;20189;-69
2022/08/12 06:20:56;;;;;;;9.07;8.50;;;;;;;18.46;66.22;66135.75;5122507;28;20173;-68
2022/08/12 06:23:27;;;;;;;10.07;9.37;;;;;;;18.57;66.14;66150.66;5133967;28;20528;-68
2022/08/12 06:25:54;;;;;;;7.13;7.03;;;;;;;18.70;66.19;66163.13;5115988;28;20600;-69
2022/08/12 06:28:21;;;;;;;9.40;9.00;;;;;;;;;;5125718;28;20196;-69
2022/08/12 06:30:49;;;;;;;8.70;8.30;;;;;;;18.94;65.71;66194.63;5133540;28;20224;-68
2022/08/12 06:33:36;;;;;;;9.73;9.33;;;;;;;19.08;64.61;66201.25;5133723;28;20227;-69
2022/08/12 06:36:23;;;;;;;7.90;7.40;;;;;;;19.11;64.88;66210.41;5118320;27;20284;-69
2022/08/12 06:38:55;;;;;;;10.00;9.10;;;;;;;19.27;63.84;66227.16;5137645;27;20169;-68
2022/08/12 06:44:27;;;;;;;8.57;8.37;;;;;;;19.53;62.78;66250.94;5135508;27;20368;-69
2022/08/12 06:46:54;;;;;;;8.57;7.83;;;;;;;19.66;62.24;66264.94;5137122;27;20230;-69
2022/08/12 06:49:23;;;;;;;9.23;8.63;;;;;;;19.72;62.42;66274.28;5133317;27;20253;-69
2022/08/12 06:51:53;;;;;;;9.83;7.97;;;;;;;19.86;62.80;66291.97;5137199;27;20603;-69
2022/08/12 06:54:24;;;;;;;8.50;7.90;;;;;;;20.08;60.58;66311.31;5135603;27;21346;-70
2022/08/12 06:56:59;;;;;;;8.70;7.80;;;;;;;20.24;60.59;66331.84;5135288;27;20211;-68
2022/08/12 06:59:31;;;;;;;7.63;7.43;;;;;;;;;;5137298;27;20230;-68
2022/08/12 07:01:57;;;;;;;10.37;7.63;;;;;;;20.51;59.50;66358.28;5135690;27;20185;-70
2022/08/12 07:04:24;;;;;;;8.37;7.90;;;;;;;20.67;59.50;66378.25;5135862;27;20658;-69
2022/08/12 07:07:08;;;;;;;17.17;8.10;;;;;;;20.82;57.51;66395.03;5136637;27;20245;-69
2022/08/12 07:09:37;;;;;;;8.63;7.97;;;;;;;20.98;57.41;66412.91;5137332;27;20181;-69
2022/08/12 07:12:26;;;;;;;8.20;7.37;;;;;;;21.11;56.46;66427.47;5120100;27;20670;-70
2022/08/12 07:14:57;;;;;;;9.40;7.73;;;;;;;21.30;55.61;66445.00;5135886;27;20615;-70
2022/08/12 07:17:29;;;;;;;12.47;8.30;;;;;;;21.46;56.29;66464.97;5136872;27;20175;-69
2022/08/12 07:19:55;;;;;;;7.37;6.80;;;;;;;;;;5136436;27;20185;-69
2022/08/12 07:22:29;;;;;;;7.67;7.37;;;;;;;;;;5129021;27;20188;-69
2022/08/12 07:27:41;;;;;;;8.10;7.90;;;;;;;21.91;53.45;66507.38;5136903;27;20703;-69
2022/08/12 07:30:08;;;;;;;7.40;7.20;;;;;;;;;;5136339;27;20619;-69
2022/08/12 07:32:35;;;;;;;10.77;7.67;;;;;;;22.09;52.25;66537.03;5134203;27;20185;-71
2022/08/12 07:35:02;;;;;;;7.50;7.20;;;;;;;;;;5132344;27;20185;-70
2022/08/12 07:37:29;;;;;;;7.97;7.27;;;;;;;22.32;51.94;66562.78;5135348;27;20189;-69
2022/08/12 07:39:57;;;;;;;8.13;7.63;;;;;;;22.52;50.36;66579.31;5133652;27;20191;-69
2022/08/12 07:42:27;;;;;;;8.03;7.73;;;;;;;22.56;47.85;66589.09;5136454;27;20180;-69
2022/08/12 07:44:55;;;;;;;7.43;7.03;;;;;;;22.63;48.15;66585.78;5136059;27;20189;-69
2022/08/12 07:47:22;;;;;;;6.97;6.73;;;;;;;22.65;48.12;66595.97;5135607;27;20279;-69
2022/08/12 07:49:48;;;;;;;7.00;6.67;;;;;;;22.76;47.98;66608.28;5135039;27;20181;-70
2022/08/12 07:52:37;;;;;;;7.77;7.20;;;;;;;22.83;47.55;66612.91;5135445;27;20172;-69
2022/08/12 07:55:04;;;;;;;7.30;6.53;;;;;;;;;;5124408;27;20188;-70
2022/08/12 07:57:33;;;;;;;7.67;7.20;;;;;;;23.03;46.82;66638.56;5129339;27;20185;-70
2022/08/12 08:00:04;;;;;;;6.93;6.70;;;;;;;23.16;46.38;66652.56;5124296;27;20292;-69
2022/08/12 08:02:34;;;;;;;8.20;7.43;;;;;;;23.27;45.35;66664.31;5134008;27;20249;-69
2022/08/12 08:05:02;;;;;;;7.23;6.60;;;;;;;23.33;45.98;66671.63;5133002;27;20534;-70
2022/08/12 08:07:29;;;;;;;7.60;7.00;;;;;;;23.38;46.03;66676.09;5130732;27;20625;-70
2022/08/12 08:09:58;;;;;;;6.53;6.20;;;;;;;23.44;45.47;66680.19;5130793;27;20253;-70
2022/08/12 08:15:13;;;;;;;12.77;6.63;;;;;;;23.61;46.58;66707.75;5134447;27;20216;-70
2022/08/12 08:17:56;;;;;;;7.40;7.07;;;;;;;23.61;46.35;66702.47;5134196;27;20188;-70
2022/08/12 08:20:27;;;;;;;7.00;6.43;;;;;;;;;;5133523;27;20222;-69
2022/08/12 08:22:55;;;;;;;6.60;6.40;;;;;;;;;;5131526;27;20196;-70
2022/08/12 08:25:22;;;;;;;7.10;6.45;;;;;;;23.99;44.89;66740.72;5133657;27;20262;-70
2022/08/12 08:28:13;;;;;;;5.75;5.57;;;;;;;;;;5131178;27;20185;-70
2022/08/12 08:30:42;;;;;;;7.15;6.28;;;;;;;24.08;44.45;66750.84;5131844;27;20558;-71
2022/08/12 08:33:10;;;;;;;5.75;5.50;;;;;;;;;;5130231;27;20271;-70
2022/08/12 08:35:56;;;;;;;9.65;6.18;;;;;;;24.22;43.00;66769.19;5132933;27;20617;-69
2022/08/12 08:38:23;;;;;;;6.72;6.15;;;;;;;24.22;42.79;66768.59;5134247;27;20698;-69
2022/08/12 08:44:09;;;;;;;5.53;5.40;;;;;;;24.51;42.28;66801.16;5132005;27;20267;-71
2022/08/12 08:46:37;;;;;;;5.93;5.72;;;;;;;;;;5125305;27;20257;-70
2022/08/12 08:49:04;;;;;;;6.20;5.55;;;;;;;;;;5133758;27;20203;-69
2022/08/12 08:51:30;;;;;;;7.82;5.70;;;;;;;;;;5132024;27;20192;-71
2022/08/12 08:53:57;;;;;;;5.88;5.43;;;;;;;25.03;42.79;66857.81;5135079;27;20244;-70
2022/08/12 08:56:23;;;;;;;9.48;5.50;;;;;;;25.09;41.59;66861.94;5133330;27;20204;-70
2022/08/12 08:58:49;;;;;;;6.00;5.80;;;;;;;25.10;41.25;66863.06;5128416;27;20646;-69
2022/08/12 09:01:21;;;;;;;9.32;5.20;;;;;;;25.19;41.10;66875.81;5135058;27;20188;-69
2022/08/12 09:03:48;;;;;;;6.55;6.15;;;;;;;;;;5131498;27;20211;-71
2022/08/12 09:06:35;;;;;;;6.00;5.90;;;;;;;;;;5134816;27;20291;-70
2022/08/12 09:09:22;;;;;;;4.38;3.97;;;;;;;25.53;37.47;66913.41;5133494;27;20650;-70
2022/08/12 09:14:42;;;;;;;9.02;4.55;;;;;;;25.62;38.40;66920.28;5127345;27;20237;-71
2022/08/12 09:17:12;;;;;;;6.55;4.50;;;;;;;;;;5134222;27;20211;-70
2022/08/12 09:19:49;;;;;;;3.88;3.60;;;;;;;25.66;36.15;66927.44;5134391;27;20188;-70
2022/08/12 09:22:23;;;;;;;6.30;3.70;;;;;;;25.80;35.05;66940.53;5134630;27;20177;-69
2022/08/12 09:24:54;;;;;;;3.47;3.47;;;;;;;;;;5134810;27;20502;-69
2022/08/12 09:27:25;;;;;;;3.03;3.03;;;;;;;;;;5134778;27;20196;-69
2022/08/12 09:30:14;;;;;;;3.35;3.28;;;;;;;25.98;33.52;66963.41;5134236;27;20187;-71
2022/08/12 09:32:45;;;;;;;3.72;3.47;;;;;;;26.18;32.30;66982.06;5133659;28;20595;-69
2022/08/12 09:35:36;;;;;;;5.28;3.20;;;;;;;;;;5131503;27;20212;-69
2022/08/12 09:38:16;;;;;;;3.70;3.70;;;;;;;26.14;31.72;66980.78;5130714;28;20233;-69
2022/08/12 09:40:56;;;;;;;3.53;3.22;;;;;;;26.21;31.81;66988.66;5134272;28;20252;-69
2022/08/12 09:46:31;;;;;;;4.75;4.65;;;;;;;26.31;32.50;66997.25;5129453;28;20269;-69
2022/08/12 09:49:00;;;;;;;2.70;2.60;;;;;;;;;;5131432;28;20216;-69
2022/08/12 09:51:33;;;;;;;5.53;3.00;;;;;;;26.14;30.90;66977.56;5131046;28;20192;-73
2022/08/12 09:54:03;;;;;;;3.22;3.17;;;;;;;26.21;31.24;66993.44;5129868;28;20250;-70
2022/08/12 09:56:52;;;;;;;5.07;3.30;;;;;;;26.27;31.23;66992.75;5125399;28;20299;-70
2022/08/12 09:59:28;;;;;;;3.10;2.92;;;;;;;26.35;31.80;67001.16;5129854;28;20289;-71
2022/08/12 10:02:15;;;;;;;3.10;2.92;;;;;;;;;;5129847;28;20279;-69
2022/08/12 10:05:02;;;;;;;3.33;3.22;;;;;;;26.53;30.54;67021.41;5127401;27;20662;-70
2022/08/12 10:07:29;;;;;;;2.85;2.70;;;;;;;26.56;29.98;67024.22;5131425;28;20245;-69
2022/08/12 10:10:06;;;;;;;2.47;2.47;;;;;;;;;;5133628;27;20722;-71
2022/08/12 10:15:43;;;;;;;2.75;2.75;;;;;;;26.95;30.34;67066.94;5128499;27;20220;-69
2022/08/12 10:18:31;;;;;;;3.17;3.03;;;;;;;27.09;29.89;67088.56;5136000;27;20550;-70
2022/08/12 10:20:58;;;;;;;3.40;3.15;;;;;;;26.97;29.72;67069.16;5138265;27;20192;-69
2022/08/12 10:23:27;;;;;;;3.05;2.95;;;;;;;26.97;28.75;67072.41;5137776;27;20200;-69
2022/08/12 10:32:16;;;;;;;2.83;2.83;;;;;;;;;;5132412;27;20658;-69
2022/08/12 10:34:49;;;;;;;3.30;3.30;;;;;;;26.82;30.53;67053.44;5119039;27;20208;-70
2022/08/12 10:37:22;;;;;;;3.38;3.33;;;;;;;26.78;31.45;67048.94;5130803;27;20191;-71
2022/08/12 10:40:10;;;;;;;4.50;4.30;;;;;;;26.83;30.65;67057.22;5135398;27;20188;-70
2022/08/12 10:45:30;;;;;;;7.28;3.35;;;;;;;26.88;30.19;67062.28;5137759;27;20265;-69
2022/08/12 10:47:57;;;;;;;3.47;3.17;;;;;;;;;;5134313;27;20615;-70
2022/08/12 10:50:43;;;;;;;5.18;4.00;;;;;;;26.98;30.35;67076.19;5137744;27;20217;-70
2022/08/12 10:53:33;;;;;;;4.32;3.15;;;;;;;27.12;30.13;67086.59;5135328;27;20212;-70
2022/08/12 10:56:12;;;;;;;2.95;2.95;;;;;;;;;;5136154;27;20200;-70
2022/08/12 10:58:39;;;;;;;3.08;3.08;;;;;;;27.09;29.93;67082.69;5128760;27;20231;-72
2022/08/12 11:01:11;;;;;;;3.70;2.78;;;;;;;27.02;30.31;67077.47;5133600;27;20182;-70
2022/08/12 11:04:03;;;;;;;3.28;3.13;;;;;;;27.05;30.07;67083.50;5134889;27;20192;-69
2022/08/12 11:06:52;;;;;;;3.10;3.03;;;;;;;27.18;30.21;67092.25;5136404;27;20569;-69
2022/08/12 11:09:37;;;;;;;3.70;3.50;;;;;;;27.04;29.25;67077.63;5132670;27;20192;-69
2022/08/12 11:12:23;;;;;;;7.88;3.03;;;;;;;27.10;30.24;67075.81;5130031;27;20231;-69
2022/08/12 11:15:10;;;;;;;9.43;3.08;;;;;;;27.01;29.72;67076.34;5135468;27;20580;-71
2022/08/12 11:17:47;;;;;;;2.83;2.72;;;;;;;26.99;30.57;67079.97;5135555;27;20201;-69
2022/08/12 11:20:23;;;;;;;3.92;3.00;;;;;;;27.03;30.04;67078.59;5137197;27;20173;-69
2022/08/12 11:23:00;;;;;;;3.60;3.40;;;;;;;27.00;30.82;67075.19;5134900;27;20202;-71
2022/08/12 11:25:48;;;;;;;3.45;3.30;;;;;;;26.98;31.03;67070.28;5131857;27;20299;-71
2022/08/12 11:28:23;;;;;;;3.20;3.10;;;;;;;26.93;30.03;67065.22;5131960;27;20252;-71
2022/08/12 11:31:01;;;;;;;4.57;3.22;;;;;;;26.99;30.83;67071.41;5129147;27;20184;-71
2022/08/12 11:33:27;;;;;;;3.25;3.05;;;;;;;;;;5135102;27;20197;-69
2022/08/12 11:36:15;;;;;;;3.10;3.10;;;;;;;27.18;27.53;67097.56;5130224;27;20700;-70
2022/08/12 11:38:42;;;;;;;10.35;3.25;;;;;;;27.05;28.83;67081.41;5136227;27;20229;-69
2022/08/12 11:41:17;;;;;;;3.40;3.30;;;;;;;26.99;29.65;67074.09;5134646;27;20192;-69
2022/08/12 11:43:57;;;;;;;5.15;3.33;;;;;;;;;;5135764;27;20188;-69
2022/08/12 11:46:24;;;;;;;2.67;2.58;;;;;;;27.08;29.91;67082.13;5133976;27;20678;-70
2022/08/12 11:48:50;;;;;;;2.78;2.78;;;;;;;;;;5136132;27;20196;-70
2022/08/12 11:51:19;;;;;;;2.70;2.63;;;;;;;;;;5136096;27;20287;-71
2022/08/12 11:53:45;;;;;;;3.60;3.33;;;;;;;27.01;28.92;67074.25;5136086;27;20575;-70
2022/08/12 11:56:27;;;;;;;2.75;2.75;;;;;;;27.04;29.35;67077.03;5126720;27;20580;-71
2022/08/12 11:59:04;;;;;;;3.10;3.10;;;;;;;;;;5133735;27;20518;-69
2022/08/12 12:01:51;;;;;;;2.50;2.50;;;;;;;27.12;28.63;67086.59;5129934;27;20266;-69
2022/08/12 12:04:30;;;;;;;2.90;2.90;;;;;;;27.20;27.60;67095.03;5126306;27;20196;-70
2022/08/12 12:06:57;;;;;;;4.05;2.80;;;;;;;27.17;27.68;67094.34;5131096;27;20209;-70
2022/08/12 12:09:34;;;;;;;8.98;2.75;;;;;;;27.14;27.11;67088.84;5125965;27;20571;-72
2022/08/12 12:12:22;;;;;;;2.83;2.83;;;;;;;27.12;27.78;67086.59;5129311;27;20184;-71
2022/08/12 12:14:49;;;;;;;2.90;2.67;;;;;;;27.15;27.46;67092.66;5134925;27;20189;-71
2022/08/12 12:17:24;;;;;;;2.80;2.70;;;;;;;27.20;28.91;67097.72;5126816;27;20237;-70
2022/08/12 12:19:52;;;;;;;2.60;2.60;;;;;;;27.27;28.69;67102.34;5127224;27;20222;-72
2022/08/12 12:22:21;;;;;;;2.72;2.63;;;;;;;27.32;28.36;67110.63;5128020;27;20188;-70
2022/08/12 12:24:58;;;;;;;3.20;3.08;;;;;;;;;;5122193;27;20188;-71
2022/08/12 12:27:50;;;;;;;2.60;2.60;;;;;;;27.31;28.38;67112.19;5129626;27;20205;-70
2022/08/12 12:30:31;;;;;;;2.72;2.72;;;;;;;27.27;28.95;67102.34;5131429;27;20582;-73
2022/08/12 12:32:57;;;;;;;3.80;3.72;;;;;;;27.33;28.58;67104.31;5129923;27;20192;-71
2022/08/12 12:35:24;;;;;;;2.60;2.50;;;;;;;27.38;27.32;67117.94;5133560;27;20223;-71
2022/08/12 12:38:12;;;;;;;6.68;3.00;;;;;;;27.37;26.75;67113.59;5134557;27;20529;-70
2022/08/12 12:40:45;;;;;;;2.45;2.45;;;;;;;27.31;26.88;67109.53;5125933;27;20245;-70
2022/08/12 12:43:17;;;;;;;2.50;2.50;;;;;;;27.40;23.26;67116.97;5121388;27;20192;-70
2022/08/12 12:46:03;;;;;;;2.45;2.45;;;;;;;27.34;24.47;67110.22;5126634;27;20208;-70
2022/08/12 12:48:30;;;;;;;2.35;2.35;;;;;;;27.36;25.01;67115.13;5134920;27;20214;-69
2022/08/12 12:51:15;;;;;;;3.60;2.25;;;;;;;;;;5135035;27;20177;-69
2022/08/12 12:54:01;;;;;;;4.13;2.03;;;;;;;27.47;25.31;67118.94;5134909;27;20194;-69
2022/08/12 12:56:39;;;;;;;2.10;2.10;;;;;;;27.47;25.30;67127.50;5134260;27;20559;-71
2022/08/12 12:59:05;;;;;;;2.22;2.05;;;;;;;27.46;25.67;67123.16;5134171;27;20575;-70
2022/08/12 13:01:52;;;;;;;2.50;2.20;;;;;;;;;;5119597;27;20280;-70
2022/08/12 13:04:20;;;;;;;1.65;1.65;;;;;;;27.43;24.88;67123.00;5116706;27;20185;-71
2022/08/12 13:06:51;;;;;;;6.28;2.17;;;;;;;;;;5116600;27;20204;-69
2022/08/12 13:09:18;;;;;;;4.13;2.13;;;;;;;27.53;24.61;67134.25;5116956;27;20168;-69
2022/08/12 13:11:49;;;;;;;8.98;2.03;;;;;;;27.64;24.31;67143.38;5135121;27;20611;-69
2022/08/12 13:14:19;;;;;;;2.47;1.67;;;;;;;27.68;24.76;67150.56;5134688;27;20253;-71
2022/08/12 13:16:59;;;;;;;2.05;2.03;;;;;;;27.68;24.30;67147.91;5134725;27;20215;-69
2022/08/12 13:19:30;;;;;;;2.00;2.00;;;;;;;27.54;24.06;67134.81;5134794;27;20180;-70
2022/08/12 13:22:19;;;;;;;2.15;1.77;;;;;;;27.47;23.93;67127.50;5134761;27;20172;-70
2022/08/12 13:24:52;;;;;;;1.75;1.75;;;;;;;;;;5134319;27;20187;-72
2022/08/12 13:27:32;;;;;;;1.80;1.80;;;;;;;;;;5134340;27;20207;-70
2022/08/12 13:30:08;;;;;;;3.03;1.88;;;;;;;27.46;23.63;67126.38;5134613;27;20180;-70
2022/08/12 13:32:44;;;;;;;5.78;2.30;;;;;;;27.52;24.50;67132.56;5134858;27;20507;-70
2022/08/12 13:35:28;;;;;;;2.35;2.25;;;;;;;27.58;24.74;67139.88;5134526;27;20204;-70
2022/08/12 13:38:15;;;;;;;2.17;2.17;;;;;;;27.50;25.29;67130.88;5134833;28;20668;-70
2022/08/12 13:40:52;;;;;;;11.70;1.88;;;;;;;27.66;23.90;67145.66;5134295;28;20264;-69
2022/08/12 13:43:18;;;;;;;2.22;2.20;;;;;;;;;;5134447;28;20237;-69
2022/08/12 13:46:08;;;;;;;1.90;1.90;;;;;;;27.77;22.88;67162.81;5138392;27;20215;-69
2022/08/12 13:48:42;;;;;;;2.63;2.38;;;;;;;27.73;23.23;67153.53;5138408;27;20203;-69
2022/08/12 13:51:11;;;;;;;2.53;2.17;;;;;;;27.62;22.72;67141.13;5138725;27;20183;-70
2022/08/12 13:53:39;;;;;;;1.83;1.83;;;;;;;27.61;23.91;67145.34;5138324;27;20188;-70
2022/08/12 13:56:26;;;;;;;1.75;1.75;;;;;;;27.75;24.07;67155.78;5138347;27;20295;-69
2022/08/12 13:59:06;;;;;;;2.90;1.30;;;;;;;27.75;22.97;67157.88;5138545;27;20625;-70
2022/08/12 14:01:35;;;;;;;2.58;2.38;;;;;;;27.68;23.79;67150.56;5138516;27;20172;-70
2022/08/12 14:04:08;;;;;;;2.00;2.00;;;;;;;27.60;23.91;67142.13;5138086;27;20176;-70
2022/08/12 14:06:38;;;;;;;4.50;1.77;;;;;;;27.55;25.20;67136.50;5138369;27;20211;-69
2022/08/12 14:09:04;;;;;;;2.22;2.22;;;;;;;27.48;24.35;67128.63;5138240;27;20603;-70
2022/08/12 14:11:43;;;;;;;2.20;2.20;;;;;;;27.61;24.82;67143.25;5138313;27;20637;-70
2022/08/12 14:14:26;;;;;;;2.75;1.83;;;;;;;27.62;24.37;67141.69;5138506;27;20241;-69
2022/08/12 14:16:57;;;;;;;2.35;1.95;;;;;;;27.57;23.68;67138.75;5138038;27;20199;-70
2022/08/12 14:19:23;;;;;;;2.67;2.50;;;;;;;27.59;24.99;67137.78;5138145;27;20612;-70
2022/08/12 14:21:58;;;;;;;2.08;2.03;;;;;;;27.55;24.64;67133.28;5138278;27;20176;-70
2022/08/12 14:24:33;;;;;;;2.08;2.08;;;;;;;27.54;24.70;67132.72;5137945;27;20172;-69